sensor_id;sensor_type;location;lat;lon;timestamp;temperature;humidity
43607;DHT22;29197;44.788;10.366;2023-02-15T00:00:48;8.50;99.90
43607;DHT22;29197;44.788;10.366;2023-02-15T00:03:38;8.00;99.90
43607;DHT22;29197;44.788;10.366;2023-02-15T00:06:26;7.20;99.90
43607;DHT22;29197;44.788;10.366;2023-02-15T00:09:15;7.60;99.90
43607;DHT22;29197;44.788;10.366;2023-02-15T00:12:04;8.00;99.90
43607;DHT22;29197;44.788;10.366;2023-02-15T00:14:53;8.30;99.90
43607;DHT22;29197;44.788;10.366;2023-02-15T00:17:41;8.40;99.90
43607;DHT22;29197;44.788;10.366;2023-02-15T00:20:31;8.60;99.90
43607;DHT22;29197;44.788;10.366;2023-02-15T00:23:20;8.60;99.90
43607;DHT22;29197;44.788;10.366;2023-02-15T00:26:10;8.90;99.90
43607;DHT22;29197;44.788;10.366;2023-02-15T00:28:59;8.90;99.90
43607;DHT22;29197;44.788;10.366;2023-02-15T00:31:48;9.00;99.90
43607;DHT22;29197;44.788;10.366;2023-02-15T00:34:37;8.70;99.90
43607;DHT22;29197;44.788;10.366;2023-02-15T00:37:27;8.40;99.90
43607;DHT22;29197;44.788;10.366;2023-02-15T00:40:15;8.50;99.90
43607;DHT22;29197;44.788;10.366;2023-02-15T00:43:04;8.50;99.90
43607;DHT22;29197;44.788;10.366;2023-02-15T00:45:52;7.90;99.90
43607;DHT22;29197;44.788;10.366;2023-02-15T00:48:41;7.80;99.90
43607;DHT22;29197;44.788;10.366;2023-02-15T00:51:30;7.90;99.90
43607;DHT22;29197;44.788;10.366;2023-02-15T00:54:20;8.10;99.90
43607;DHT22;29197;44.788;10.366;2023-02-15T00:57:09;8.50;99.90
43607;DHT22;29197;44.788;10.366;2023-02-15T00:59:57;8.10;99.90
43607;DHT22;29197;44.788;10.366;2023-02-15T01:02:46;8.00;99.90
43607;DHT22;29197;44.788;10.366;2023-02-15T01:05:34;7.70;99.90
43607;DHT22;29197;44.788;10.366;2023-02-15T01:08:23;7.50;99.90
43607;DHT22;29197;44.788;10.366;2023-02-15T01:11:15;7.30;99.90
43607;DHT22;29197;44.788;10.366;2023-02-15T01:14:09;7.40;99.90
43607;DHT22;29197;44.788;10.366;2023-02-15T01:16:58;7.30;99.90
43607;DHT22;29197;44.788;10.366;2023-02-15T01:19:46;7.40;99.90
43607;DHT22;29197;44.788;10.366;2023-02-15T01:22:35;7.40;99.90
43607;DHT22;29197;44.788;10.366;2023-02-15T01:25:24;7.80;99.90
43607;DHT22;29197;44.788;10.366;2023-02-15T01:28:14;8.10;99.90
43607;DHT22;29197;44.788;10.366;2023-02-15T01:31:07;7.90;99.90
43607;DHT22;29197;44.788;10.366;2023-02-15T01:33:55;8.20;99.90
43607;DHT22;29197;44.788;10.366;2023-02-15T01:36:44;8.50;99.90
43607;DHT22;29197;44.788;10.366;2023-02-15T01:39:32;8.50;99.90
43607;DHT22;29197;44.788;10.366;2023-02-15T01:42:21;7.90;99.90
43607;DHT22;29197;44.788;10.366;2023-02-15T01:45:20;7.80;99.90
43607;DHT22;29197;44.788;10.366;2023-02-15T01:48:19;7.50;99.90
43607;DHT22;29197;44.788;10.366;2023-02-15T01:51:09;7.40;99.90
43607;DHT22;29197;44.788;10.366;2023-02-15T01:54:01;7.60;99.90
43607;DHT22;29197;44.788;10.366;2023-02-15T01:56:51;7.70;99.90
43607;DHT22;29197;44.788;10.366;2023-02-15T01:59:44;7.30;99.90
43607;DHT22;29197;44.788;10.366;2023-02-15T02:02:34;7.30;99.90
43607;DHT22;29197;44.788;10.366;2023-02-15T02:05:23;7.40;99.90
43607;DHT22;29197;44.788;10.366;2023-02-15T02:08:12;7.20;99.90
43607;DHT22;29197;44.788;10.366;2023-02-15T02:11:01;7.30;99.90
43607;DHT22;29197;44.788;10.366;2023-02-15T02:13:50;7.30;99.90
43607;DHT22;29197;44.788;10.366;2023-02-15T02:16:46;7.00;99.90
43607;DHT22;29197;44.788;10.366;2023-02-15T02:19:59;7.00;99.90
43607;DHT22;29197;44.788;10.366;2023-02-15T02:23:16;7.40;99.90
43607;DHT22;29197;44.788;10.366;2023-02-15T02:26:40;7.10;99.90
43607;DHT22;29197;44.788;10.366;2023-02-15T02:29:59;7.20;99.90
43607;DHT22;29197;44.788;10.366;2023-02-15T02:33:14;7.30;99.90
43607;DHT22;29197;44.788;10.366;2023-02-15T02:36:14;7.60;99.90
43607;DHT22;29197;44.788;10.366;2023-02-15T02:39:12;7.70;99.90
43607;DHT22;29197;44.788;10.366;2023-02-15T02:42:05;7.80;99.90
43607;DHT22;29197;44.788;10.366;2023-02-15T02:45:01;8.00;99.90
43607;DHT22;29197;44.788;10.366;2023-02-15T02:47:54;8.30;99.90
43607;DHT22;29197;44.788;10.366;2023-02-15T02:50:45;8.40;99.90
43607;DHT22;29197;44.788;10.366;2023-02-15T02:53:34;8.60;99.90
43607;DHT22;29197;44.788;10.366;2023-02-15T02:56:27;8.70;99.90
43607;DHT22;29197;44.788;10.366;2023-02-15T02:59:19;8.70;99.90
43607;DHT22;29197;44.788;10.366;2023-02-15T03:02:11;8.80;99.90
43607;DHT22;29197;44.788;10.366;2023-02-15T03:05:05;8.80;99.90
43607;DHT22;29197;44.788;10.366;2023-02-15T03:07:57;8.80;99.90
43607;DHT22;29197;44.788;10.366;2023-02-15T03:10:48;8.80;99.90
43607;DHT22;29197;44.788;10.366;2023-02-15T03:13:40;8.80;99.90
43607;DHT22;29197;44.788;10.366;2023-02-15T03:16:29;8.80;99.90
43607;DHT22;29197;44.788;10.366;2023-02-15T03:19:22;8.80;99.90
43607;DHT22;29197;44.788;10.366;2023-02-15T03:22:15;8.80;99.90
43607;DHT22;29197;44.788;10.366;2023-02-15T03:25:11;8.80;99.90
43607;DHT22;29197;44.788;10.366;2023-02-15T03:28:04;8.80;99.90
43607;DHT22;29197;44.788;10.366;2023-02-15T03:30:57;8.80;99.90
43607;DHT22;29197;44.788;10.366;2023-02-15T03:33:53;8.80;99.90
43607;DHT22;29197;44.788;10.366;2023-02-15T03:36:46;8.80;99.90
43607;DHT22;29197;44.788;10.366;2023-02-15T03:39:38;8.80;99.90
43607;DHT22;29197;44.788;10.366;2023-02-15T03:42:32;8.70;99.90
43607;DHT22;29197;44.788;10.366;2023-02-15T03:45:25;8.70;99.90
43607;DHT22;29197;44.788;10.366;2023-02-15T03:48:15;8.70;99.90
43607;DHT22;29197;44.788;10.366;2023-02-15T03:51:06;8.60;99.90
43607;DHT22;29197;44.788;10.366;2023-02-15T03:54:17;8.60;99.90
43607;DHT22;29197;44.788;10.366;2023-02-15T03:57:27;8.60;99.90
43607;DHT22;29197;44.788;10.366;2023-02-15T04:00:37;8.60;99.90
43607;DHT22;29197;44.788;10.366;2023-02-15T04:03:47;8.50;99.90
43607;DHT22;29197;44.788;10.366;2023-02-15T04:06:38;8.50;99.90
43607;DHT22;29197;44.788;10.366;2023-02-15T04:09:26;8.50;99.90
43607;DHT22;29197;44.788;10.366;2023-02-15T04:12:32;8.50;99.90
43607;DHT22;29197;44.788;10.366;2023-02-15T04:15:20;8.30;99.90
43607;DHT22;29197;44.788;10.366;2023-02-15T04:18:27;8.20;99.90
43607;DHT22;29197;44.788;10.366;2023-02-15T04:21:34;8.30;99.90
43607;DHT22;29197;44.788;10.366;2023-02-15T04:24:39;8.30;99.90
43607;DHT22;29197;44.788;10.366;2023-02-15T04:27:48;8.20;99.90
43607;DHT22;29197;44.788;10.366;2023-02-15T04:30:37;8.10;99.90
43607;DHT22;29197;44.788;10.366;2023-02-15T04:33:27;8.20;99.90
43607;DHT22;29197;44.788;10.366;2023-02-15T04:36:15;7.30;99.90
43607;DHT22;29197;44.788;10.366;2023-02-15T04:39:04;7.20;99.90
43607;DHT22;29197;44.788;10.366;2023-02-15T04:41:53;7.00;99.90
43607;DHT22;29197;44.788;10.366;2023-02-15T04:44:41;7.20;99.90
43607;DHT22;29197;44.788;10.366;2023-02-15T04:47:30;6.90;99.90
43607;DHT22;29197;44.788;10.366;2023-02-15T04:50:20;7.00;99.90
43607;DHT22;29197;44.788;10.366;2023-02-15T04:53:09;6.50;99.90
43607;DHT22;29197;44.788;10.366;2023-02-15T04:55:58;6.10;99.90
43607;DHT22;29197;44.788;10.366;2023-02-15T04:58:47;6.20;99.90
43607;DHT22;29197;44.788;10.366;2023-02-15T05:01:36;6.60;99.90
43607;DHT22;29197;44.788;10.366;2023-02-15T05:04:25;6.60;99.90
43607;DHT22;29197;44.788;10.366;2023-02-15T05:07:14;6.00;99.90
43607;DHT22;29197;44.788;10.366;2023-02-15T05:10:04;6.10;99.90
43607;DHT22;29197;44.788;10.366;2023-02-15T05:12:52;5.90;99.90
43607;DHT22;29197;44.788;10.366;2023-02-15T05:15:41;6.10;99.90
43607;DHT22;29197;44.788;10.366;2023-02-15T05:18:31;6.40;99.90
43607;DHT22;29197;44.788;10.366;2023-02-15T05:21:19;6.70;99.90
43607;DHT22;29197;44.788;10.366;2023-02-15T05:24:09;6.90;99.90
43607;DHT22;29197;44.788;10.366;2023-02-15T05:27:12;7.10;99.90
43607;DHT22;29197;44.788;10.366;2023-02-15T05:30:18;7.30;99.90
43607;DHT22;29197;44.788;10.366;2023-02-15T05:33:07;7.40;99.90
43607;DHT22;29197;44.788;10.366;2023-02-15T05:35:56;7.30;99.90
43607;DHT22;29197;44.788;10.366;2023-02-15T05:38:44;7.00;99.90
43607;DHT22;29197;44.788;10.366;2023-02-15T05:41:34;6.90;99.90
43607;DHT22;29197;44.788;10.366;2023-02-15T05:44:23;6.70;99.90
43607;DHT22;29197;44.788;10.366;2023-02-15T05:47:11;6.40;99.90
43607;DHT22;29197;44.788;10.366;2023-02-15T05:50:00;6.60;99.90
43607;DHT22;29197;44.788;10.366;2023-02-15T05:52:48;6.70;99.90
43607;DHT22;29197;44.788;10.366;2023-02-15T05:55:38;6.40;99.90
43607;DHT22;29197;44.788;10.366;2023-02-15T05:58:31;6.60;99.90
43607;DHT22;29197;44.788;10.366;2023-02-15T06:01:20;6.70;99.90
43607;DHT22;29197;44.788;10.366;2023-02-15T06:04:10;6.90;99.90
43607;DHT22;29197;44.788;10.366;2023-02-15T06:06:58;7.20;99.90
43607;DHT22;29197;44.788;10.366;2023-02-15T06:09:47;7.10;99.90
43607;DHT22;29197;44.788;10.366;2023-02-15T06:12:35;6.40;99.90
43607;DHT22;29197;44.788;10.366;2023-02-15T06:15:25;6.50;99.90
43607;DHT22;29197;44.788;10.366;2023-02-15T06:18:14;6.70;99.90
43607;DHT22;29197;44.788;10.366;2023-02-15T06:21:02;6.70;99.90
43607;DHT22;29197;44.788;10.366;2023-02-15T06:23:51;6.60;99.90
43607;DHT22;29197;44.788;10.366;2023-02-15T06:26:39;6.70;99.90
43607;DHT22;29197;44.788;10.366;2023-02-15T06:29:28;6.80;99.90
43607;DHT22;29197;44.788;10.366;2023-02-15T06:32:18;6.90;99.90
43607;DHT22;29197;44.788;10.366;2023-02-15T06:35:07;7.00;99.90
43607;DHT22;29197;44.788;10.366;2023-02-15T06:37:56;6.80;99.90
43607;DHT22;29197;44.788;10.366;2023-02-15T06:40:44;6.50;99.90
43607;DHT22;29197;44.788;10.366;2023-02-15T06:43:33;6.40;99.90
43607;DHT22;29197;44.788;10.366;2023-02-15T06:46:22;6.30;99.90
43607;DHT22;29197;44.788;10.366;2023-02-15T06:49:12;5.90;99.90
43607;DHT22;29197;44.788;10.366;2023-02-15T06:54:49;5.40;99.90
43607;DHT22;29197;44.788;10.366;2023-02-15T06:57:38;5.50;99.90
43607;DHT22;29197;44.788;10.366;2023-02-15T07:00:26;5.70;99.90
43607;DHT22;29197;44.788;10.366;2023-02-15T07:03:15;6.10;99.90
43607;DHT22;29197;44.788;10.366;2023-02-15T07:06:05;6.00;99.90
43607;DHT22;29197;44.788;10.366;2023-02-15T07:08:55;6.00;99.90
43607;DHT22;29197;44.788;10.366;2023-02-15T07:11:44;6.10;99.90
43607;DHT22;29197;44.788;10.366;2023-02-15T07:14:50;6.30;99.90
43607;DHT22;29197;44.788;10.366;2023-02-15T07:17:38;6.60;99.90
43607;DHT22;29197;44.788;10.366;2023-02-15T07:20:27;6.90;99.90
43607;DHT22;29197;44.788;10.366;2023-02-15T07:23:17;7.10;99.90
43607;DHT22;29197;44.788;10.366;2023-02-15T07:26:06;7.60;99.90
43607;DHT22;29197;44.788;10.366;2023-02-15T07:28:56;7.80;99.90
43607;DHT22;29197;44.788;10.366;2023-02-15T07:31:44;8.00;99.90
43607;DHT22;29197;44.788;10.366;2023-02-15T07:34:33;8.30;99.90
43607;DHT22;29197;44.788;10.366;2023-02-15T07:37:21;7.70;99.90
43607;DHT22;29197;44.788;10.366;2023-02-15T07:40:12;7.30;99.90
43607;DHT22;29197;44.788;10.366;2023-02-15T07:43:00;7.50;99.90
43607;DHT22;29197;44.788;10.366;2023-02-15T07:45:49;7.70;99.90
43607;DHT22;29197;44.788;10.366;2023-02-15T07:48:38;7.70;99.90
43607;DHT22;29197;44.788;10.366;2023-02-15T07:51:27;8.20;99.90
43607;DHT22;29197;44.788;10.366;2023-02-15T07:54:16;8.60;99.90
43607;DHT22;29197;44.788;10.366;2023-02-15T07:57:06;9.00;99.90
43607;DHT22;29197;44.788;10.366;2023-02-15T07:59:55;9.30;99.90
43607;DHT22;29197;44.788;10.366;2023-02-15T08:02:47;9.70;99.90
43607;DHT22;29197;44.788;10.366;2023-02-15T08:05:57;10.00;99.90
43607;DHT22;29197;44.788;10.366;2023-02-15T08:08:47;10.30;99.90
43607;DHT22;29197;44.788;10.366;2023-02-15T08:11:36;10.50;99.90
43607;DHT22;29197;44.788;10.366;2023-02-15T08:14:28;10.80;99.90
43607;DHT22;29197;44.788;10.366;2023-02-15T08:17:16;10.90;99.90
43607;DHT22;29197;44.788;10.366;2023-02-15T08:20:06;11.00;99.90
43607;DHT22;29197;44.788;10.366;2023-02-15T08:22:55;11.10;99.90
43607;DHT22;29197;44.788;10.366;2023-02-15T08:25:44;11.30;99.90
43607;DHT22;29197;44.788;10.366;2023-02-15T08:28:32;11.40;99.90
43607;DHT22;29197;44.788;10.366;2023-02-15T08:31:22;11.40;99.90
43607;DHT22;29197;44.788;10.366;2023-02-15T08:34:14;11.20;99.90
43607;DHT22;29197;44.788;10.366;2023-02-15T08:37:03;11.20;99.90
43607;DHT22;29197;44.788;10.366;2023-02-15T08:39:53;11.00;99.90
43607;DHT22;29197;44.788;10.366;2023-02-15T08:42:41;10.90;99.90
43607;DHT22;29197;44.788;10.366;2023-02-15T08:45:30;10.90;99.90
43607;DHT22;29197;44.788;10.366;2023-02-15T08:48:20;10.90;99.90
43607;DHT22;29197;44.788;10.366;2023-02-15T08:51:10;10.90;99.90
43607;DHT22;29197;44.788;10.366;2023-02-15T08:54:01;11.00;99.90
43607;DHT22;29197;44.788;10.366;2023-02-15T08:56:51;11.10;99.90
43607;DHT22;29197;44.788;10.366;2023-02-15T08:59:39;11.10;99.90
43607;DHT22;29197;44.788;10.366;2023-02-15T09:02:28;11.20;99.90
43607;DHT22;29197;44.788;10.366;2023-02-15T09:05:18;11.30;99.90
43607;DHT22;29197;44.788;10.366;2023-02-15T09:08:06;11.20;99.90
43607;DHT22;29197;44.788;10.366;2023-02-15T09:11:05;11.20;99.90
43607;DHT22;29197;44.788;10.366;2023-02-15T09:13:56;11.30;99.90
43607;DHT22;29197;44.788;10.366;2023-02-15T09:16:45;11.40;99.90
43607;DHT22;29197;44.788;10.366;2023-02-15T09:19:36;11.40;99.90
43607;DHT22;29197;44.788;10.366;2023-02-15T09:22:26;11.50;99.90
43607;DHT22;29197;44.788;10.366;2023-02-15T09:25:14;11.60;99.90
43607;DHT22;29197;44.788;10.366;2023-02-15T09:28:03;11.70;99.90
43607;DHT22;29197;44.788;10.366;2023-02-15T09:30:51;11.80;99.90
43607;DHT22;29197;44.788;10.366;2023-02-15T09:33:42;11.90;99.90
43607;DHT22;29197;44.788;10.366;2023-02-15T09:36:32;12.00;99.90
43607;DHT22;29197;44.788;10.366;2023-02-15T09:39:23;12.00;99.90
43607;DHT22;29197;44.788;10.366;2023-02-15T09:45:47;12.10;99.90
43607;DHT22;29197;44.788;10.366;2023-02-15T09:48:41;12.00;99.90
43607;DHT22;29197;44.788;10.366;2023-02-15T09:52:00;12.10;99.90
43607;DHT22;29197;44.788;10.366;2023-02-15T09:55:01;12.10;99.90
43607;DHT22;29197;44.788;10.366;2023-02-15T09:58:04;12.30;99.90
43607;DHT22;29197;44.788;10.366;2023-02-15T10:01:00;12.50;99.90
43607;DHT22;29197;44.788;10.366;2023-02-15T10:04:03;12.70;99.90
43607;DHT22;29197;44.788;10.366;2023-02-15T10:07:05;12.90;99.90
43607;DHT22;29197;44.788;10.366;2023-02-15T10:10:14;13.10;99.90
43607;DHT22;29197;44.788;10.366;2023-02-15T10:13:17;13.30;99.90
43607;DHT22;29197;44.788;10.366;2023-02-15T10:16:19;13.40;99.90
43607;DHT22;29197;44.788;10.366;2023-02-15T10:19:16;13.60;99.90
43607;DHT22;29197;44.788;10.366;2023-02-15T10:22:16;13.70;99.90
43607;DHT22;29197;44.788;10.366;2023-02-15T10:25:28;13.80;99.90
43607;DHT22;29197;44.788;10.366;2023-02-15T10:28:20;13.90;99.90
43607;DHT22;29197;44.788;10.366;2023-02-15T10:31:17;14.10;99.90
43607;DHT22;29197;44.788;10.366;2023-02-15T10:34:16;14.30;99.90
43607;DHT22;29197;44.788;10.366;2023-02-15T10:37:37;14.50;99.90
43607;DHT22;29197;44.788;10.366;2023-02-15T10:40:39;14.60;99.90
43607;DHT22;29197;44.788;10.366;2023-02-15T10:43:43;14.80;99.90
43607;DHT22;29197;44.788;10.366;2023-02-15T10:46:44;14.90;99.90
43607;DHT22;29197;44.788;10.366;2023-02-15T10:49:57;14.90;99.90
43607;DHT22;29197;44.788;10.366;2023-02-15T10:52:59;15.00;99.90
43607;DHT22;29197;44.788;10.366;2023-02-15T10:55:59;15.10;99.90
43607;DHT22;29197;44.788;10.366;2023-02-15T10:59:04;15.20;99.90
43607;DHT22;29197;44.788;10.366;2023-02-15T11:02:01;15.30;99.90
43607;DHT22;29197;44.788;10.366;2023-02-15T11:04:57;15.40;99.90
43607;DHT22;29197;44.788;10.366;2023-02-15T11:07:51;15.70;99.90
43607;DHT22;29197;44.788;10.366;2023-02-15T11:10:44;15.80;99.90
43607;DHT22;29197;44.788;10.366;2023-02-15T11:13:39;16.00;99.90
43607;DHT22;29197;44.788;10.366;2023-02-15T11:16:31;15.90;99.90
43607;DHT22;29197;44.788;10.366;2023-02-15T11:19:22;15.80;99.90
43607;DHT22;29197;44.788;10.366;2023-02-15T11:22:12;15.90;99.90
43607;DHT22;29197;44.788;10.366;2023-02-15T11:25:16;16.10;99.90
43607;DHT22;29197;44.788;10.366;2023-02-15T11:28:13;16.30;99.90
43607;DHT22;29197;44.788;10.366;2023-02-15T11:31:15;16.50;99.90
43607;DHT22;29197;44.788;10.366;2023-02-15T11:34:12;16.80;99.90
43607;DHT22;29197;44.788;10.366;2023-02-15T11:39:54;17.30;99.90
43607;DHT22;29197;44.788;10.366;2023-02-15T11:42:44;17.50;99.90
43607;DHT22;29197;44.788;10.366;2023-02-15T11:45:34;17.70;99.90
43607;DHT22;29197;44.788;10.366;2023-02-15T11:48:24;17.90;99.90
43607;DHT22;29197;44.788;10.366;2023-02-15T11:51:16;18.10;99.90
43607;DHT22;29197;44.788;10.366;2023-02-15T11:54:09;18.30;99.90
43607;DHT22;29197;44.788;10.366;2023-02-15T11:57:01;18.40;99.90
43607;DHT22;29197;44.788;10.366;2023-02-15T11:59:57;18.60;99.90
43607;DHT22;29197;44.788;10.366;2023-02-15T12:02:52;18.50;99.90
43607;DHT22;29197;44.788;10.366;2023-02-15T12:05:45;18.60;99.90
43607;DHT22;29197;44.788;10.366;2023-02-15T12:08:38;18.60;99.90
43607;DHT22;29197;44.788;10.366;2023-02-15T12:11:32;18.70;99.90
43607;DHT22;29197;44.788;10.366;2023-02-15T12:17:13;19.10;99.90
43607;DHT22;29197;44.788;10.366;2023-02-15T12:20:04;19.30;99.90
43607;DHT22;29197;44.788;10.366;2023-02-15T12:22:59;19.50;99.90
43607;DHT22;29197;44.788;10.366;2023-02-15T12:25:52;19.60;99.90
43607;DHT22;29197;44.788;10.366;2023-02-15T12:28:43;19.60;99.90
43607;DHT22;29197;44.788;10.366;2023-02-15T12:31:37;19.70;99.90
43607;DHT22;29197;44.788;10.366;2023-02-15T12:37:21;20.00;99.90
43607;DHT22;29197;44.788;10.366;2023-02-15T12:40:22;20.20;99.90
43607;DHT22;29197;44.788;10.366;2023-02-15T12:43:25;20.40;99.90
43607;DHT22;29197;44.788;10.366;2023-02-15T12:46:24;20.70;99.90
43607;DHT22;29197;44.788;10.366;2023-02-15T12:49:18;20.30;99.90
43607;DHT22;29197;44.788;10.366;2023-02-15T12:52:24;20.20;99.90
43607;DHT22;29197;44.788;10.366;2023-02-15T12:55:23;20.20;99.90
43607;DHT22;29197;44.788;10.366;2023-02-15T12:58:16;20.50;99.90
43607;DHT22;29197;44.788;10.366;2023-02-15T13:01:13;20.60;99.90
43607;DHT22;29197;44.788;10.366;2023-02-15T13:04:05;20.70;99.90
43607;DHT22;29197;44.788;10.366;2023-02-15T13:06:57;20.70;99.90
43607;DHT22;29197;44.788;10.366;2023-02-15T13:12:38;21.00;99.90
43607;DHT22;29197;44.788;10.366;2023-02-15T13:15:31;21.00;99.90
43607;DHT22;29197;44.788;10.366;2023-02-15T13:18:29;21.10;99.90
43607;DHT22;29197;44.788;10.366;2023-02-15T13:21:21;21.20;99.90
43607;DHT22;29197;44.788;10.366;2023-02-15T13:24:18;21.30;99.90
43607;DHT22;29197;44.788;10.366;2023-02-15T13:27:13;21.30;99.90
43607;DHT22;29197;44.788;10.366;2023-02-15T13:30:14;21.40;99.90
43607;DHT22;29197;44.788;10.366;2023-02-15T13:33:12;21.40;99.90
43607;DHT22;29197;44.788;10.366;2023-02-15T13:36:08;21.40;99.90
43607;DHT22;29197;44.788;10.366;2023-02-15T13:39:12;21.40;99.90
43607;DHT22;29197;44.788;10.366;2023-02-15T13:42:14;21.50;99.90
43607;DHT22;29197;44.788;10.366;2023-02-15T13:45:20;21.50;99.90
43607;DHT22;29197;44.788;10.366;2023-02-15T13:48:18;21.30;99.30
43607;DHT22;29197;44.788;10.366;2023-02-15T13:51:13;21.00;99.90
43607;DHT22;29197;44.788;10.366;2023-02-15T13:57:47;21.20;99.90
43607;DHT22;29197;44.788;10.366;2023-02-15T14:00:47;21.20;99.90
43607;DHT22;29197;44.788;10.366;2023-02-15T14:03:56;21.20;99.90
43607;DHT22;29197;44.788;10.366;2023-02-15T14:07:02;21.20;99.90
43607;DHT22;29197;44.788;10.366;2023-02-15T14:10:10;21.20;99.90
43607;DHT22;29197;44.788;10.366;2023-02-15T14:16:34;21.10;99.90
43607;DHT22;29197;44.788;10.366;2023-02-15T14:19:28;21.10;99.90
43607;DHT22;29197;44.788;10.366;2023-02-15T14:22:22;21.00;99.90
43607;DHT22;29197;44.788;10.366;2023-02-15T14:25:18;21.00;99.90
43607;DHT22;29197;44.788;10.366;2023-02-15T14:28:12;21.00;99.90
43607;DHT22;29197;44.788;10.366;2023-02-15T14:31:04;21.10;99.90
43607;DHT22;29197;44.788;10.366;2023-02-15T14:33:57;20.90;99.90
43607;DHT22;29197;44.788;10.366;2023-02-15T14:36:46;20.90;99.90
43607;DHT22;29197;44.788;10.366;2023-02-15T14:48:35;20.60;99.90
43607;DHT22;29197;44.788;10.366;2023-02-15T14:51:56;20.60;99.90
43607;DHT22;29197;44.788;10.366;2023-02-15T14:54:57;20.50;99.90
43607;DHT22;29197;44.788;10.366;2023-02-15T14:57:56;20.40;99.90
43607;DHT22;29197;44.788;10.366;2023-02-15T15:00:46;20.10;99.90
43607;DHT22;29197;44.788;10.366;2023-02-15T15:03:35;20.00;99.90
43607;DHT22;29197;44.788;10.366;2023-02-15T15:06:26;20.00;99.90
43607;DHT22;29197;44.788;10.366;2023-02-15T15:15:12;19.70;99.90
43607;DHT22;29197;44.788;10.366;2023-02-15T15:18:03;19.60;99.90
43607;DHT22;29197;44.788;10.366;2023-02-15T15:20:52;19.40;99.90
43607;DHT22;29197;44.788;10.366;2023-02-15T15:23:44;19.20;99.90
43607;DHT22;29197;44.788;10.366;2023-02-15T15:26:34;19.10;99.90
43607;DHT22;29197;44.788;10.366;2023-02-15T15:29:39;19.00;99.90
43607;DHT22;29197;44.788;10.366;2023-02-15T15:32:30;18.80;99.90
43607;DHT22;29197;44.788;10.366;2023-02-15T15:35:25;18.60;99.90
43607;DHT22;29197;44.788;10.366;2023-02-15T15:38:29;18.40;99.90
43607;DHT22;29197;44.788;10.366;2023-02-15T15:41:29;18.20;99.90
43607;DHT22;29197;44.788;10.366;2023-02-15T15:44:40;18.20;99.90
43607;DHT22;29197;44.788;10.366;2023-02-15T15:48:09;18.30;99.90
43607;DHT22;29197;44.788;10.366;2023-02-15T15:51:03;18.00;99.90
43607;DHT22;29197;44.788;10.366;2023-02-15T15:53:54;17.80;99.90
43607;DHT22;29197;44.788;10.366;2023-02-15T15:56:46;17.60;99.90
43607;DHT22;29197;44.788;10.366;2023-02-15T15:59:44;17.50;99.90
43607;DHT22;29197;44.788;10.366;2023-02-15T16:02:33;18.30;99.90
43607;DHT22;29197;44.788;10.366;2023-02-15T16:05:21;17.30;99.90
43607;DHT22;29197;44.788;10.366;2023-02-15T16:08:10;17.10;99.90
43607;DHT22;29197;44.788;10.366;2023-02-15T16:10:59;17.00;99.90
43607;DHT22;29197;44.788;10.366;2023-02-15T16:13:48;17.00;99.90
43607;DHT22;29197;44.788;10.366;2023-02-15T16:16:38;16.80;99.90
43607;DHT22;29197;44.788;10.366;2023-02-15T16:19:29;16.70;99.90
43607;DHT22;29197;44.788;10.366;2023-02-15T16:22:20;16.60;99.90
43607;DHT22;29197;44.788;10.366;2023-02-15T16:25:25;16.60;99.90
43607;DHT22;29197;44.788;10.366;2023-02-15T16:28:18;16.50;99.90
43607;DHT22;29197;44.788;10.366;2023-02-15T16:31:11;16.40;99.90
43607;DHT22;29197;44.788;10.366;2023-02-15T16:34:09;16.30;99.90
43607;DHT22;29197;44.788;10.366;2023-02-15T16:37:15;16.20;99.90
43607;DHT22;29197;44.788;10.366;2023-02-15T16:40:04;16.30;99.90
43607;DHT22;29197;44.788;10.366;2023-02-15T16:42:56;16.30;99.90
43607;DHT22;29197;44.788;10.366;2023-02-15T16:45:47;16.30;99.90
43607;DHT22;29197;44.788;10.366;2023-02-15T16:48:40;16.20;99.90
43607;DHT22;29197;44.788;10.366;2023-02-15T16:51:33;16.00;99.90
43607;DHT22;29197;44.788;10.366;2023-02-15T16:54:23;15.80;99.90
43607;DHT22;29197;44.788;10.366;2023-02-15T16:57:18;15.70;99.90
43607;DHT22;29197;44.788;10.366;2023-02-15T17:00:17;15.60;99.90
43607;DHT22;29197;44.788;10.366;2023-02-15T17:03:21;15.60;99.90
43607;DHT22;29197;44.788;10.366;2023-02-15T17:06:20;15.50;99.90
43607;DHT22;29197;44.788;10.366;2023-02-15T17:09:16;15.40;99.90
43607;DHT22;29197;44.788;10.366;2023-02-15T17:12:09;15.30;99.90
43607;DHT22;29197;44.788;10.366;2023-02-15T17:14:57;15.30;99.90
43607;DHT22;29197;44.788;10.366;2023-02-15T17:17:46;15.20;99.90
43607;DHT22;29197;44.788;10.366;2023-02-15T17:20:37;15.10;99.90
43607;DHT22;29197;44.788;10.366;2023-02-15T17:23:30;15.10;99.90
43607;DHT22;29197;44.788;10.366;2023-02-15T17:26:23;15.00;99.90
43607;DHT22;29197;44.788;10.366;2023-02-15T17:29:21;14.90;99.90
43607;DHT22;29197;44.788;10.366;2023-02-15T17:32:17;14.80;99.90
43607;DHT22;29197;44.788;10.366;2023-02-15T17:35:16;14.70;99.90
43607;DHT22;29197;44.788;10.366;2023-02-15T17:38:18;14.70;99.90
43607;DHT22;29197;44.788;10.366;2023-02-15T17:41:07;14.70;99.90
43607;DHT22;29197;44.788;10.366;2023-02-15T17:43:57;14.60;99.90
43607;DHT22;29197;44.788;10.366;2023-02-15T17:46:46;14.50;99.90
43607;DHT22;29197;44.788;10.366;2023-02-15T17:49:34;14.60;99.90
43607;DHT22;29197;44.788;10.366;2023-02-15T17:52:27;14.70;99.90
43607;DHT22;29197;44.788;10.366;2023-02-15T17:55:18;14.60;99.90
43607;DHT22;29197;44.788;10.366;2023-02-15T17:58:24;14.50;99.90
43607;DHT22;29197;44.788;10.366;2023-02-15T18:04:24;14.40;99.90
43607;DHT22;29197;44.788;10.366;2023-02-15T18:07:30;14.20;99.90
43607;DHT22;29197;44.788;10.366;2023-02-15T18:10:36;14.00;99.90
43607;DHT22;29197;44.788;10.366;2023-02-15T18:13:42;13.80;99.90
43607;DHT22;29197;44.788;10.366;2023-02-15T18:16:33;13.80;99.90
43607;DHT22;29197;44.788;10.366;2023-02-15T18:19:24;13.80;99.90
43607;DHT22;29197;44.788;10.366;2023-02-15T18:22:15;13.80;99.90
43607;DHT22;29197;44.788;10.366;2023-02-15T18:25:07;13.70;99.90
43607;DHT22;29197;44.788;10.366;2023-02-15T18:27:57;13.80;99.90
43607;DHT22;29197;44.788;10.366;2023-02-15T18:30:45;13.80;99.90
43607;DHT22;29197;44.788;10.366;2023-02-15T18:33:38;13.90;99.90
43607;DHT22;29197;44.788;10.366;2023-02-15T18:36:29;13.70;99.90
43607;DHT22;29197;44.788;10.366;2023-02-15T18:39:25;13.60;99.90
43607;DHT22;29197;44.788;10.366;2023-02-15T18:42:19;13.60;99.90
43607;DHT22;29197;44.788;10.366;2023-02-15T18:45:14;13.60;99.90
43607;DHT22;29197;44.788;10.366;2023-02-15T18:48:03;13.70;99.90
43607;DHT22;29197;44.788;10.366;2023-02-15T18:50:55;13.50;99.90